Time,TemperatureF,DewpointF,PressureIn,WindDirection,WindDirectionDegrees,WindSpeedMPH,WindSpeedGustMPH,Humidity,HourlyPrecipIn,Conditions,Clouds,dailyrainin,SoftwareType,DateUTC
2013-11-02 00:01:00,53.1,51.1,29.96,West,261,0.0,0.0,93,0.00,,,0.00,WeatherCatV1.02B3,2013-11-02 05:01:00,
2013-11-02 00:06:00,53.0,51.0,29.96,West,261,0.0,0.0,93,0.00,,,0.00,WeatherCatV1.02B3,2013-11-02 05:06:00,
2013-11-02 00:11:00,53.0,51.0,29.96,West,261,0.0,0.0,93,0.00,,,0.00,WeatherCatV1.02B3,2013-11-02 05:11:00,
2013-11-02 00:16:00,52.9,50.9,29.96,West,261,0.0,0.0,93,0.00,,,0.00,WeatherCatV1.02B3,2013-11-02 05:16:00,
2013-11-02 00:21:00,52.9,50.9,29.96,West,261,0.0,0.0,93,0.00,,,0.00,WeatherCatV1.02B3,2013-11-02 05:21:00,
2013-11-02 00:26:00,52.8,50.8,29.96,West,261,0.0,0.0,93,0.00,,,0.00,WeatherCatV1.02B3,2013-11-02 05:26:00,
2013-11-02 00:31:00,53.0,51.0,29.96,West,261,0.0,0.0,93,0.00,,,0.00,WeatherCatV1.02B3,2013-11-02 05:31:00,
2013-11-02 00:36:00,53.0,51.0,29.96,West,261,0.0,0.0,93,0.00,,,0.00,WeatherCatV1.02B3,2013-11-02 05:36:00,
2013-11-02 00:41:00,53.0,51.0,29.96,West,261,0.0,0.0,93,0.00,,,0.00,WeatherCatV1.02B3,2013-11-02 05:41:00,
2013-11-02 00:46:00,53.0,51.0,29.96,West,261,0.0,0.0,93,0.00,,,0.00,WeatherCatV1.02B3,2013-11-02 05:46:00,
2013-11-02 00:51:00,53.0,51.0,29.96,West,261,0.0,0.0,93,0.00,,,0.00,WeatherCatV1.02B3,2013-11-02 05:51:00,
2013-11-02 00:56:00,53.0,51.0,29.96,West,261,0.0,0.0,93,0.00,,,0.00,WeatherCatV1.02B3,2013-11-02 05:56:00,
2013-11-02 01:01:00,53.0,51.0,29.96,West,261,0.0,0.0,93,0.00,,,0.00,WeatherCatV1.02B3,2013-11-02 06:01:00,
2013-11-02 01:06:00,53.0,51.0,29.96,West,261,0.0,0.0,93,0.00,,,0.00,WeatherCatV1.02B3,2013-11-02 06:06:00,
2013-11-02 01:11:00,52.9,50.9,29.96,West,261,0.0,0.0,93,0.00,,,0.00,WeatherCatV1.02B3,2013-11-02 06:11:00,
2013-11-02 01:16:00,52.9,50.9,29.96,West,261,0.0,0.0,93,0.00,,,0.00,WeatherCatV1.02B3,2013-11-02 06:16:00,
2013-11-02 01:21:00,52.9,50.9,29.96,West,261,0.0,0.0,93,0.00,,,0.00,WeatherCatV1.02B3,2013-11-02 06:21:00,
2013-11-02 01:26:00,52.9,50.9,29.95,West,261,0.0,0.0,93,0.00,,,0.00,WeatherCatV1.02B3,2013-11-02 06:26:00,
2013-11-02 01:31:00,52.9,50.9,29.95,West,261,0.0,0.0,93,0.00,,,0.00,WeatherCatV1.02B3,2013-11-02 06:31:00,
2013-11-02 01:36:00,52.9,50.9,29.95,West,261,0.0,0.0,93,0.00,,,0.00,WeatherCatV1.02B3,2013-11-02 06:36:00,
2013-11-02 01:41:00,53.0,51.0,29.95,West,261,0.0,0.0,93,0.00,,,0.00,WeatherCatV1.02B3,2013-11-02 06:41:00,
2013-11-02 01:46:00,53.1,51.1,29.95,West,261,0.0,0.0,93,0.00,,,0.00,WeatherCatV1.02B3,2013-11-02 06:46:00,
2013-11-02 01:51:00,53.2,50.9,29.95,West,261,0.0,0.0,92,0.00,,,0.00,WeatherCatV1.02B3,2013-11-02 06:51:00,
2013-11-02 01:56:00,53.3,51.0,29.96,West,261,0.0,0.0,92,0.00,,,0.00,WeatherCatV1.02B3,2013-11-02 06:56:00,
2013-11-02 02:01:00,53.2,50.9,29.95,West,261,0.0,0.0,92,0.00,,,0.00,WeatherCatV1.02B3,2013-11-02 07:01:00,
2013-11-02 02:06:00,53.2,50.9,29.95,West,261,0.0,0.0,92,0.00,,,0.00,WeatherCatV1.02B3,2013-11-02 07:06:00,
2013-11-02 02:11:00,53.1,50.8,29.96,West,261,0.0,0.0,92,0.00,,,0.00,WeatherCatV1.02B3,2013-11-02 07:11:00,
2013-11-02 02:16:00,53.1,50.8,29.95,West,261,0.0,0.0,92,0.00,,,0.00,WeatherCatV1.02B3,2013-11-02 07:16:00,
2013-11-02 02:21:00,53.0,50.7,29.96,West,261,0.0,0.0,92,0.00,,,0.00,WeatherCatV1.02B3,2013-11-02 07:21:00,
2013-11-02 02:26:00,53.0,50.7,29.96,West,261,0.0,0.0,92,0.00,,,0.00,WeatherCatV1.02B3,2013-11-02 07:26:00,
2013-11-02 02:31:00,53.0,50.7,29.96,West,261,0.0,0.0,92,0.00,,,0.00,WeatherCatV1.02B3,2013-11-02 07:31:00,
2013-11-02 02:36:00,53.0,50.7,29.96,West,261,0.0,0.0,92,0.00,,,0.00,WeatherCatV1.02B3,2013-11-02 07:36:00,
2013-11-02 02:41:00,53.0,50.7,29.96,West,261,0.0,0.0,92,0.00,,,0.00,WeatherCatV1.02B3,2013-11-02 07:41:00,
2013-11-02 02:46:00,53.0,50.7,29.95,West,261,0.0,0.0,92,0.00,,,0.00,WeatherCatV1.02B3,2013-11-02 07:46:00,
2013-11-02 02:51:00,53.0,50.7,29.96,West,261,0.0,0.0,92,0.00,,,0.00,WeatherCatV1.02B3,2013-11-02 07:51:00,
2013-11-02 02:56:00,53.0,50.7,29.96,West,261,0.0,0.0,92,0.00,,,0.00,WeatherCatV1.02B3,2013-11-02 07:56:00,
2013-11-02 03:01:00,52.9,50.6,29.96,West,261,0.0,0.0,92,0.00,,,0.00,WeatherCatV1.02B3,2013-11-02 08:01:00,
2013-11-02 03:06:00,52.9,50.6,29.96,West,261,0.0,0.0,92,0.00,,,0.00,WeatherCatV1.02B3,2013-11-02 08:06:00,
2013-11-02 03:11:00,52.9,50.6,29.96,West,261,0.0,0.0,92,0.00,,,0.00,WeatherCatV1.02B3,2013-11-02 08:11:00,
2013-11-02 03:16:00,52.8,50.5,29.96,West,261,0.0,0.0,92,0.00,,,0.00,WeatherCatV1.02B3,2013-11-02 08:16:00,
2013-11-02 03:21:00,52.8,50.5,29.97,West,261,0.0,0.0,92,0.00,,,0.00,WeatherCatV1.02B3,2013-11-02 08:21:00,
2013-11-02 03:26:00,52.7,50.4,29.97,West,261,0.0,0.0,92,0.00,,,0.00,WeatherCatV1.02B3,2013-11-02 08:26:00,
2013-11-02 03:31:00,52.8,50.5,29.97,West,261,0.0,0.0,92,0.00,,,0.00,WeatherCatV1.02B3,2013-11-02 08:31:00,
2013-11-02 03:36:00,52.9,50.6,29.97,West,261,0.0,0.0,92,0.00,,,0.00,WeatherCatV1.02B3,2013-11-02 08:36:00,
2013-11-02 03:41:00,53.0,50.7,29.97,West,261,0.0,0.0,92,0.00,,,0.00,WeatherCatV1.02B3,2013-11-02 08:41:00,
2013-11-02 03:46:00,53.2,50.9,29.97,West,261,0.0,0.0,92,0.00,,,0.00,WeatherCatV1.02B3,2013-11-02 08:46:00,
2013-11-02 03:51:00,53.3,51.0,29.97,West,261,0.0,0.0,92,0.00,,,0.00,WeatherCatV1.02B3,2013-11-02 08:51:00,
2013-11-02 03:56:00,53.5,51.2,29.97,West,261,0.0,0.0,92,0.00,,,0.00,WeatherCatV1.02B3,2013-11-02 08:56:00,
2013-11-02 04:01:00,53.5,51.2,29.96,West,261,0.0,0.0,92,0.00,,,0.00,WeatherCatV1.02B3,2013-11-02 09:01:00,
2013-11-02 04:06:00,53.6,51.3,29.97,West,261,0.0,0.0,92,0.00,,,0.00,WeatherCatV1.02B3,2013-11-02 09:06:00,
2013-11-02 04:11:00,53.6,51.3,29.97,West,261,0.0,0.0,92,0.00,,,0.00,WeatherCatV1.02B3,2013-11-02 09:11:00,
2013-11-02 04:16:00,53.6,51.0,29.97,West,261,0.0,0.0,91,0.00,,,0.00,WeatherCatV1.02B3,2013-11-02 09:16:00,
2013-11-02 04:21:00,53.6,51.0,29.97,West,261,0.0,0.0,91,0.00,,,0.00,WeatherCatV1.02B3,2013-11-02 09:21:00,
2013-11-02 04:26:00,53.6,51.0,29.97,West,261,0.0,0.0,91,0.00,,,0.00,WeatherCatV1.02B3,2013-11-02 09:26:00,
2013-11-02 04:31:00,53.5,50.9,29.97,West,261,0.0,0.0,91,0.00,,,0.00,WeatherCatV1.02B3,2013-11-02 09:31:00,
2013-11-02 04:36:00,53.5,50.6,29.97,West,261,0.0,0.0,90,0.00,,,0.00,WeatherCatV1.02B3,2013-11-02 09:36:00,
2013-11-02 04:41:00,53.4,50.5,29.97,West,261,0.0,0.0,90,0.00,,,0.00,WeatherCatV1.02B3,2013-11-02 09:41:00,
2013-11-02 04:46:00,53.3,50.4,29.97,West,261,0.0,0.0,90,0.00,,,0.00,WeatherCatV1.02B3,2013-11-02 09:46:00,
2013-11-02 04:51:00,53.3,50.4,29.98,West,261,0.0,0.0,90,0.00,,,0.00,WeatherCatV1.02B3,2013-11-02 09:51:00,
2013-11-02 04:56:00,53.2,50.6,29.98,West,261,0.0,0.0,91,0.00,,,0.00,WeatherCatV1.02B3,2013-11-02 09:56:00,
2013-11-02 05:01:00,53.1,50.5,29.98,West,261,0.0,0.0,91,0.00,,,0.00,WeatherCatV1.02B3,2013-11-02 10:01:00,
2013-11-02 05:06:00,53.0,50.4,29.98,West,261,0.0,0.0,91,0.00,,,0.00,WeatherCatV1.02B3,2013-11-02 10:06:00,
2013-11-02 05:11:00,53.0,50.4,29.98,West,261,0.0,0.0,91,0.00,,,0.00,WeatherCatV1.02B3,2013-11-02 10:11:00,
2013-11-02 05:16:00,53.0,50.4,29.99,West,261,0.0,0.0,91,0.00,,,0.00,WeatherCatV1.02B3,2013-11-02 10:16:00,
2013-11-02 05:21:00,53.0,50.4,29.99,West,261,0.0,0.0,91,0.00,,,0.00,WeatherCatV1.02B3,2013-11-02 10:21:00,
2013-11-02 05:26:00,53.0,50.4,29.99,West,261,0.0,0.0,91,0.00,,,0.00,WeatherCatV1.02B3,2013-11-02 10:26:00,
2013-11-02 05:31:00,52.9,50.3,29.99,West,261,0.0,0.0,91,0.00,,,0.00,WeatherCatV1.02B3,2013-11-02 10:31:00,
2013-11-02 05:36:00,52.9,50.3,30.00,West,261,0.0,0.0,91,0.00,,,0.00,WeatherCatV1.02B3,2013-11-02 10:36:00,
2013-11-02 05:41:00,52.8,50.2,30.00,West,261,0.0,0.0,91,0.00,,,0.00,WeatherCatV1.02B3,2013-11-02 10:41:00,
2013-11-02 05:46:00,52.8,50.2,30.00,West,261,1.0,1.0,91,0.00,,,0.00,WeatherCatV1.02B3,2013-11-02 10:46:00,
2013-11-02 05:51:00,52.9,50.3,30.00,West,261,0.0,0.0,91,0.00,,,0.00,WeatherCatV1.02B3,2013-11-02 10:51:00,
2013-11-02 05:56:00,53.3,50.7,30.00,NW,324,0.0,2.0,91,0.00,,,0.00,WeatherCatV1.02B3,2013-11-02 10:56:00,
2013-11-02 06:01:00,53.9,51.3,30.00,WNW,291,0.0,2.0,91,0.00,,,0.00,WeatherCatV1.02B3,2013-11-02 11:01:00,
2013-11-02 06:06:00,54.6,51.4,30.01,North,350,0.0,0.0,89,0.00,,,0.00,WeatherCatV1.02B3,2013-11-02 11:06:00,
2013-11-02 06:11:00,55.0,51.5,30.00,NW,306,0.0,5.0,88,0.00,,,0.00,WeatherCatV1.02B3,2013-11-02 11:11:00,
2013-11-02 06:16:00,55.5,51.7,30.01,North,355,0.0,0.0,87,0.00,,,0.00,WeatherCatV1.02B3,2013-11-02 11:16:00,
2013-11-02 06:21:00,55.8,51.7,30.01,NW,315,0.0,2.0,86,0.00,,,0.00,WeatherCatV1.02B3,2013-11-02 11:21:00,
2013-11-02 06:26:00,56.0,51.2,30.01,NNW,328,1.0,3.0,84,0.00,,,0.00,WeatherCatV1.02B3,2013-11-02 11:26:00,
2013-11-02 06:31:00,56.4,51.3,30.01,NNW,341,0.0,0.0,83,0.00,,,0.00,WeatherCatV1.02B3,2013-11-02 11:31:00,
2013-11-02 06:36:00,56.7,51.3,30.01,NNW,331,0.0,3.0,82,0.00,,,0.00,WeatherCatV1.02B3,2013-11-02 11:36:00,
2013-11-02 06:41:00,56.9,51.5,30.01,NW,305,0.0,1.0,82,0.00,,,0.00,WeatherCatV1.02B3,2013-11-02 11:41:00,
2013-11-02 06:47:00,57.1,51.0,30.01,NNW,338,0.0,2.0,80,0.00,,,0.00,WeatherCatV1.02B3,2013-11-02 11:47:00,
2013-11-02 06:52:00,57.2,51.1,30.02,NW,315,0.0,2.0,80,0.00,,,0.00,WeatherCatV1.02B3,2013-11-02 11:52:00,
2013-11-02 06:57:00,57.2,51.1,30.02,NW,319,0.0,1.0,80,0.00,,,0.00,WeatherCatV1.02B3,2013-11-02 11:57:00,
2013-11-02 07:02:00,57.2,51.1,30.03,NW,317,0.0,0.0,80,0.00,,,0.00,WeatherCatV1.02B3,2013-11-02 12:02:00,
2013-11-02 07:06:00,57.1,51.3,30.03,NNW,330,0.0,0.0,81,0.00,,,0.00,WeatherCatV1.02B3,2013-11-02 12:06:00,
2013-11-02 07:11:00,57.0,51.2,30.03,NNW,336,0.0,1.0,81,0.00,,,0.00,WeatherCatV1.02B3,2013-11-02 12:11:00,
2013-11-02 07:17:00,56.9,51.1,30.03,WNW,297,0.0,1.0,81,0.00,,,0.00,WeatherCatV1.02B3,2013-11-02 12:17:00,
2013-11-02 07:22:00,56.8,51.4,30.04,NNW,337,0.0,0.0,82,0.00,,,0.00,WeatherCatV1.02B3,2013-11-02 12:22:00,
2013-11-02 07:27:00,56.7,51.3,30.04,NNW,344,0.0,1.0,82,0.00,,,0.00,WeatherCatV1.02B3,2013-11-02 12:27:00,
2013-11-02 07:32:00,56.7,51.3,30.04,NW,311,0.0,2.0,82,0.00,,,0.00,WeatherCatV1.02B3,2013-11-02 12:32:00,
2013-11-02 07:37:00,56.7,51.3,30.04,WNW,302,0.0,1.0,82,0.00,,,0.00,WeatherCatV1.02B3,2013-11-02 12:37:00,
2013-11-02 07:42:00,56.7,51.3,30.04,WNW,289,0.0,1.0,82,0.00,,,0.00,WeatherCatV1.02B3,2013-11-02 12:42:00,
2013-11-02 07:47:00,56.7,51.3,30.05,North,5,0.0,0.0,82,0.00,,,0.00,WeatherCatV1.02B3,2013-11-02 12:47:00,
2013-11-02 07:52:00,56.7,51.6,30.05,North,355,0.0,1.0,83,0.00,,,0.00,WeatherCatV1.02B3,2013-11-02 12:52:00,
2013-11-02 07:57:00,56.8,51.7,30.06,West,277,0.0,5.0,83,0.00,,,0.00,WeatherCatV1.02B3,2013-11-02 12:57:00,
2013-11-02 08:02:00,56.9,51.5,30.06,NW,319,0.0,5.0,82,0.00,,,0.00,WeatherCatV1.02B3,2013-11-02 13:02:00,
2013-11-02 08:07:00,57.0,51.6,30.06,NNW,334,1.0,2.0,82,0.00,,,0.00,WeatherCatV1.02B3,2013-11-02 13:07:00,
2013-11-02 08:12:00,57.2,51.4,30.07,SW,221,3.0,4.0,81,0.00,,,0.00,WeatherCatV1.02B3,2013-11-02 13:12:00,
2013-11-02 08:17:00,57.6,51.8,30.07,NW,322,3.0,6.0,81,0.00,,,0.00,WeatherCatV1.02B3,2013-11-02 13:17:00,
2013-11-02 08:22:00,57.7,51.9,30.06,WNW,298,0.0,4.0,81,0.00,,,0.00,WeatherCatV1.02B3,2013-11-02 13:22:00,
2013-11-02 08:27:00,57.5,51.7,30.07,WNW,288,0.0,2.0,81,0.00,,,0.00,WeatherCatV1.02B3,2013-11-02 13:27:00,
2013-11-02 08:32:00,57.3,51.5,30.07,WNW,303,0.0,0.0,81,0.00,,,0.00,WeatherCatV1.02B3,2013-11-02 13:32:00,
2013-11-02 08:37:00,57.1,51.7,30.07,NW,326,0.0,3.0,82,0.00,,,0.00,WeatherCatV1.02B3,2013-11-02 13:37:00,
2013-11-02 08:42:00,57.0,51.6,30.07,NNW,348,0.0,2.0,82,0.00,,,0.00,WeatherCatV1.02B3,2013-11-02 13:42:00,
2013-11-02 08:47:00,57.0,51.6,30.08,NNW,343,0.0,8.0,82,0.00,,,0.00,WeatherCatV1.02B3,2013-11-02 13:47:00,
2013-11-02 08:52:00,57.0,51.2,30.08,NNE,20,0.0,2.0,81,0.00,,,0.00,WeatherCatV1.02B3,2013-11-02 13:52:00,
2013-11-02 08:57:00,57.2,51.1,30.08,North,5,1.0,5.0,80,0.00,,,0.00,WeatherCatV1.02B3,2013-11-02 13:57:00,
2013-11-02 09:02:00,57.2,50.7,30.08,NW,319,2.0,5.0,79,0.00,,,0.00,WeatherCatV1.02B3,2013-11-02 14:02:00,
2013-11-02 09:07:00,57.3,51.2,30.08,WNW,294,0.0,3.0,80,0.00,,,0.00,WeatherCatV1.02B3,2013-11-02 14:07:00,
2013-11-02 09:12:00,57.4,50.9,30.09,NW,313,1.0,4.0,79,0.00,,,0.00,WeatherCatV1.02B3,2013-11-02 14:12:00,
2013-11-02 09:17:00,57.4,50.9,30.09,West,272,0.0,4.0,79,0.00,,,0.00,WeatherCatV1.02B3,2013-11-02 14:17:00,
2013-11-02 09:22:00,57.5,51.0,30.09,North,350,0.0,4.0,79,0.00,,,0.00,WeatherCatV1.02B3,2013-11-02 14:22:00,
2013-11-02 09:27:00,57.6,50.8,30.09,NNW,333,3.0,6.0,78,0.00,,,0.00,WeatherCatV1.02B3,2013-11-02 14:27:00,
2013-11-02 09:32:00,57.8,50.3,30.09,WSW,252,0.0,4.0,76,0.00,,,0.00,WeatherCatV1.02B3,2013-11-02 14:32:00,
2013-11-02 09:37:00,58.0,50.5,30.10,NW,321,0.0,1.0,76,0.00,,,0.00,WeatherCatV1.02B3,2013-11-02 14:37:00,
2013-11-02 09:42:00,58.1,50.6,30.09,NNE,29,0.0,9.0,76,0.00,,,0.00,WeatherCatV1.02B3,2013-11-02 14:42:00,
2013-11-02 09:47:00,58.3,50.8,30.10,North,0,1.0,2.0,76,0.00,,,0.00,WeatherCatV1.02B3,2013-11-02 14:47:00,
2013-11-02 09:52:00,58.6,51.1,30.10,North,9,0.0,4.0,76,0.00,,,0.00,WeatherCatV1.02B3,2013-11-02 14:52:00,
2013-11-02 09:57:00,58.8,50.9,30.10,NNW,338,2.0,5.0,75,0.00,,,0.00,WeatherCatV1.02B3,2013-11-02 14:57:00,
2013-11-02 10:02:00,59.1,50.8,30.10,NNW,336,0.0,3.0,74,0.00,,,0.00,WeatherCatV1.02B3,2013-11-02 15:02:00,
2013-11-02 10:07:00,59.3,49.5,30.10,NW,317,0.0,5.0,70,0.00,,,0.00,WeatherCatV1.02B3,2013-11-02 15:07:00,
2013-11-02 10:12:00,59.6,49.4,30.10,WNW,302,0.0,0.0,69,0.00,,,0.00,WeatherCatV1.02B3,2013-11-02 15:12:00,
2013-11-02 10:17:00,59.8,50.0,30.11,NW,318,4.0,4.0,70,0.00,,,0.00,WeatherCatV1.02B3,2013-11-02 15:17:00,
2013-11-02 10:22:00,60.1,49.1,30.11,NNE,13,0.0,4.0,67,0.00,,,0.00,WeatherCatV1.02B3,2013-11-02 15:22:00,
2013-11-02 10:27:00,60.2,49.2,30.11,West,280,3.0,6.0,67,0.00,,,0.00,WeatherCatV1.02B3,2013-11-02 15:27:00,
2013-11-02 10:32:00,60.3,48.5,30.11,NE,38,4.0,5.0,65,0.00,,,0.00,WeatherCatV1.02B3,2013-11-02 15:32:00,
2013-11-02 10:37:00,60.4,49.0,30.11,ENE,78,4.0,5.0,66,0.00,,,0.00,WeatherCatV1.02B3,2013-11-02 15:37:00,
2013-11-02 10:42:00,60.5,48.7,30.11,NNW,334,1.0,5.0,65,0.00,,,0.00,WeatherCatV1.02B3,2013-11-02 15:42:00,
2013-11-02 10:47:00,60.7,48.0,30.11,North,5,0.0,6.0,63,0.00,,,0.00,WeatherCatV1.02B3,2013-11-02 15:47:00,
2013-11-02 10:52:00,61.0,47.9,30.11,NW,305,1.0,5.0,62,0.00,,,0.00,WeatherCatV1.02B3,2013-11-02 15:52:00,
2013-11-02 10:57:00,61.1,48.0,30.11,NNW,330,0.0,2.0,62,0.00,,,0.00,WeatherCatV1.02B3,2013-11-02 15:57:00,
2013-11-02 11:02:00,61.4,48.3,30.11,WNW,297,0.0,3.0,62,0.00,,,0.00,WeatherCatV1.02B3,2013-11-02 16:02:00,
2013-11-02 11:07:00,61.6,48.0,30.11,NW,313,3.0,3.0,61,0.00,,,0.00,WeatherCatV1.02B3,2013-11-02 16:07:00,
2013-11-02 11:12:00,61.6,48.0,30.11,WNW,297,0.0,1.0,61,0.00,,,0.00,WeatherCatV1.02B3,2013-11-02 16:12:00,
2013-11-02 11:17:00,61.8,48.6,30.11,NW,314,3.0,5.0,62,0.00,,,0.00,WeatherCatV1.02B3,2013-11-02 16:17:00,
2013-11-02 11:22:00,62.0,47.5,30.11,NW,315,0.0,6.0,59,0.00,,,0.00,WeatherCatV1.02B3,2013-11-02 16:22:00,
2013-11-02 11:27:00,62.2,47.7,30.11,NW,319,0.0,3.0,59,0.00,,,0.00,WeatherCatV1.02B3,2013-11-02 16:27:00,
2013-11-02 11:32:00,62.7,48.2,30.11,NW,308,0.0,4.0,59,0.00,,,0.00,WeatherCatV1.02B3,2013-11-02 16:32:00,
2013-11-02 11:37:00,63.2,47.7,30.11,West,275,1.0,5.0,57,0.00,,,0.00,WeatherCatV1.02B3,2013-11-02 16:37:00,
2013-11-02 11:42:00,63.8,48.7,30.12,West,259,2.0,2.0,58,0.00,,,0.00,WeatherCatV1.02B3,2013-11-02 16:42:00,
2013-11-02 11:47:00,63.8,44.8,30.12,WSW,241,0.0,9.0,50,0.00,,,0.00,WeatherCatV1.02B3,2013-11-02 16:47:00,
2013-11-02 11:52:00,63.9,46.9,30.11,West,281,3.0,6.0,54,0.00,,,0.00,WeatherCatV1.02B3,2013-11-02 16:52:00,
2013-11-02 11:57:00,64.4,47.4,30.12,NW,309,2.0,2.0,54,0.00,,,0.00,WeatherCatV1.02B3,2013-11-02 16:57:00,
2013-11-02 12:02:00,64.8,47.8,30.12,WNW,283,4.0,6.0,54,0.00,,,0.00,WeatherCatV1.02B3,2013-11-02 17:02:00,
2013-11-02 12:07:00,64.9,46.3,30.11,WNW,301,0.0,3.0,51,0.00,,,0.00,WeatherCatV1.02B3,2013-11-02 17:07:00,
2013-11-02 12:12:00,64.7,45.6,30.11,North,11,0.0,4.0,50,0.00,,,0.00,WeatherCatV1.02B3,2013-11-02 17:12:00,
2013-11-02 12:17:00,64.6,47.6,30.11,WNW,302,3.0,4.0,54,0.00,,,0.00,WeatherCatV1.02B3,2013-11-02 17:17:00,
2013-11-02 12:22:00,64.3,46.8,30.11,West,265,2.0,5.0,53,0.00,,,0.00,WeatherCatV1.02B3,2013-11-02 17:22:00,
2013-11-02 12:27:00,64.2,46.7,30.11,NNW,331,1.0,2.0,53,0.00,,,0.00,WeatherCatV1.02B3,2013-11-02 17:27:00,
2013-11-02 12:32:00,64.2,47.2,30.11,WNW,298,0.0,5.0,54,0.00,,,0.00,WeatherCatV1.02B3,2013-11-02 17:32:00,
2013-11-02 12:37:00,64.5,46.0,30.11,NW,307,1.0,5.0,51,0.00,,,0.00,WeatherCatV1.02B3,2013-11-02 17:37:00,
2013-11-02 12:42:00,64.5,47.0,30.10,NNW,348,0.0,5.0,53,0.00,,,0.00,WeatherCatV1.02B3,2013-11-02 17:42:00,
2013-11-02 12:47:00,64.5,46.0,30.10,NNW,331,0.0,5.0,51,0.00,,,0.00,WeatherCatV1.02B3,2013-11-02 17:47:00,
2013-11-02 12:52:00,64.8,46.8,30.10,North,355,0.0,6.0,52,0.00,,,0.00,WeatherCatV1.02B3,2013-11-02 17:52:00,
2013-11-02 12:57:00,65.0,47.4,30.10,West,269,3.0,5.0,53,0.00,,,0.00,WeatherCatV1.02B3,2013-11-02 17:57:00,
2013-11-02 13:02:00,65.1,48.5,30.10,North,355,1.0,3.0,55,0.00,,,0.00,WeatherCatV1.02B3,2013-11-02 18:02:00,
2013-11-02 13:07:00,65.2,46.1,30.10,NNW,328,2.0,4.0,50,0.00,,,0.00,WeatherCatV1.02B3,2013-11-02 18:07:00,
2013-11-02 13:12:00,65.1,46.5,30.10,West,263,5.0,5.0,51,0.00,,,0.00,WeatherCatV1.02B3,2013-11-02 18:12:00,
2013-11-02 13:17:00,65.1,48.5,30.09,West,278,0.0,5.0,55,0.00,,,0.00,WeatherCatV1.02B3,2013-11-02 18:17:00,
2013-11-02 13:22:00,65.1,47.0,30.09,West,275,0.0,3.0,52,0.00,,,0.00,WeatherCatV1.02B3,2013-11-02 18:22:00,
2013-11-02 13:27:00,65.5,48.4,30.09,NNW,333,3.0,3.0,54,0.00,,,0.00,WeatherCatV1.02B3,2013-11-02 18:27:00,
2013-11-02 13:32:00,65.6,47.0,30.09,NNW,345,2.0,6.0,51,0.00,,,0.00,WeatherCatV1.02B3,2013-11-02 18:32:00,
2013-11-02 13:37:00,65.4,46.3,30.09,WSW,252,0.0,5.0,50,0.00,,,0.00,WeatherCatV1.02B3,2013-11-02 18:37:00,
2013-11-02 13:42:00,64.9,46.3,30.09,West,278,8.0,8.0,51,0.00,,,0.00,WeatherCatV1.02B3,2013-11-02 18:42:00,
2013-11-02 13:47:00,65.2,46.6,30.09,West,259,1.0,3.0,51,0.00,,,0.00,WeatherCatV1.02B3,2013-11-02 18:47:00,
2013-11-02 13:52:00,65.7,46.5,30.08,NW,311,1.0,5.0,50,0.00,,,0.00,WeatherCatV1.02B3,2013-11-02 18:52:00,
2013-11-02 13:57:00,66.0,45.7,30.08,West,269,5.0,7.0,48,0.00,,,0.00,WeatherCatV1.02B3,2013-11-02 18:57:00,
2013-11-02 14:02:00,65.6,45.9,30.08,West,274,2.0,8.0,49,0.00,,,0.00,WeatherCatV1.02B3,2013-11-02 19:02:00,
2013-11-02 14:07:00,65.4,46.3,30.08,West,277,5.0,6.0,50,0.00,,,0.00,WeatherCatV1.02B3,2013-11-02 19:07:00,
2013-11-02 14:12:00,65.6,47.5,30.08,West,272,4.0,7.0,52,0.00,,,0.00,WeatherCatV1.02B3,2013-11-02 19:12:00,
2013-11-02 14:17:00,65.1,46.0,30.08,West,261,0.0,8.0,50,0.00,,,0.00,WeatherCatV1.02B3,2013-11-02 19:17:00,
2013-11-02 14:22:00,65.2,46.6,30.09,East,83,0.0,4.0,51,0.00,,,0.00,WeatherCatV1.02B3,2013-11-02 19:22:00,
2013-11-02 14:27:00,65.0,45.9,30.09,NNW,342,0.0,4.0,50,0.00,,,0.00,WeatherCatV1.02B3,2013-11-02 19:27:00,
2013-11-02 14:32:00,64.8,46.2,30.08,WNW,300,2.0,5.0,51,0.00,,,0.00,WeatherCatV1.02B3,2013-11-02 19:32:00,
2013-11-02 14:37:00,64.8,45.7,30.08,East,84,5.0,8.0,50,0.00,,,0.00,WeatherCatV1.02B3,2013-11-02 19:37:00,
2013-11-02 14:42:00,64.6,45.5,30.08,NNW,341,1.0,4.0,50,0.00,,,0.00,WeatherCatV1.02B3,2013-11-02 19:42:00,
2013-11-02 14:47:00,64.6,47.1,30.08,NNE,20,0.0,5.0,53,0.00,,,0.00,WeatherCatV1.02B3,2013-11-02 19:47:00,
2013-11-02 14:52:00,64.5,46.0,30.08,WNW,296,0.0,4.0,51,0.00,,,0.00,WeatherCatV1.02B3,2013-11-02 19:52:00,
2013-11-02 14:57:00,64.5,46.5,30.08,NNE,24,0.0,0.0,52,0.00,,,0.00,WeatherCatV1.02B3,2013-11-02 19:57:00,
2013-11-02 15:02:00,64.6,44.5,30.08,WNW,285,0.0,5.0,48,0.00,,,0.00,WeatherCatV1.02B3,2013-11-02 20:02:00,
2013-11-02 15:07:00,64.6,46.1,30.08,WNW,285,0.0,7.0,51,0.00,,,0.00,WeatherCatV1.02B3,2013-11-02 20:07:00,
2013-11-02 15:12:00,64.6,46.6,30.08,NNW,341,1.0,5.0,52,0.00,,,0.00,WeatherCatV1.02B3,2013-11-02 20:12:00,
2013-11-02 15:17:00,64.3,46.3,30.08,WSW,254,0.0,7.0,52,0.00,,,0.00,WeatherCatV1.02B3,2013-11-02 20:17:00,
2013-11-02 15:22:00,64.2,45.2,30.08,West,269,0.0,4.0,50,0.00,,,0.00,WeatherCatV1.02B3,2013-11-02 20:22:00,
2013-11-02 15:27:00,64.1,45.6,30.08,SW,228,2.0,4.0,51,0.00,,,0.00,WeatherCatV1.02B3,2013-11-02 20:27:00,
2013-11-02 15:32:00,64.0,45.5,30.08,NNW,344,3.0,4.0,51,0.00,,,0.00,WeatherCatV1.02B3,2013-11-02 20:32:00,
2013-11-02 15:37:00,63.9,45.9,30.08,NNW,334,0.0,7.0,52,0.00,,,0.00,WeatherCatV1.02B3,2013-11-02 20:37:00,
2013-11-02 15:42:00,63.9,45.4,30.09,WSW,238,3.0,4.0,51,0.00,,,0.00,WeatherCatV1.02B3,2013-11-02 20:42:00,
2013-11-02 15:47:00,63.9,45.4,30.09,NW,321,1.0,5.0,51,0.00,,,0.00,WeatherCatV1.02B3,2013-11-02 20:47:00,
2013-11-02 15:52:00,63.7,45.7,30.09,NW,322,1.0,8.0,52,0.00,,,0.00,WeatherCatV1.02B3,2013-11-02 20:52:00,
2013-11-02 15:57:00,63.6,45.1,30.09,SW,225,3.0,4.0,51,0.00,,,0.00,WeatherCatV1.02B3,2013-11-02 20:57:00,
2013-11-02 16:02:00,63.6,45.1,30.09,West,261,4.0,7.0,51,0.00,,,0.00,WeatherCatV1.02B3,2013-11-02 21:02:00,
2013-11-02 16:07:00,63.3,44.3,30.09,WSW,242,3.0,6.0,50,0.00,,,0.00,WeatherCatV1.02B3,2013-11-02 21:07:00,
2013-11-02 16:12:00,63.3,44.9,30.09,WNW,296,0.0,7.0,51,0.00,,,0.00,WeatherCatV1.02B3,2013-11-02 21:12:00,
2013-11-02 16:17:00,63.4,44.4,30.09,NW,304,0.0,5.0,50,0.00,,,0.00,WeatherCatV1.02B3,2013-11-02 21:17:00,
2013-11-02 16:22:00,63.4,45.5,30.09,NNW,338,0.0,2.0,52,0.00,,,0.00,WeatherCatV1.02B3,2013-11-02 21:22:00,
2013-11-02 16:27:00,63.5,45.0,30.09,NNE,25,6.0,8.0,51,0.00,,,0.00,WeatherCatV1.02B3,2013-11-02 21:27:00,
2013-11-02 16:32:00,63.3,44.9,30.09,West,273,2.0,4.0,51,0.00,,,0.00,WeatherCatV1.02B3,2013-11-02 21:32:00,
2013-11-02 16:37:00,63.6,45.1,30.09,West,265,1.0,5.0,51,0.00,,,0.00,WeatherCatV1.02B3,2013-11-02 21:37:00,
2013-11-02 16:42:00,63.4,43.9,30.10,West,277,0.0,4.0,49,0.00,,,0.00,WeatherCatV1.02B3,2013-11-02 21:42:00,
2013-11-02 16:47:00,63.3,44.9,30.10,NW,324,2.0,7.0,51,0.00,,,0.00,WeatherCatV1.02B3,2013-11-02 21:47:00,
2013-11-02 16:52:00,63.0,43.5,30.10,NNW,336,0.0,4.0,49,0.00,,,0.00,WeatherCatV1.02B3,2013-11-02 21:52:00,
2013-11-02 16:57:00,63.0,44.6,30.10,WNW,283,1.0,2.0,51,0.00,,,0.00,WeatherCatV1.02B3,2013-11-02 21:57:00,
2013-11-02 17:02:00,62.7,44.3,30.10,West,269,0.0,4.0,51,0.00,,,0.00,WeatherCatV1.02B3,2013-11-02 22:02:00,
2013-11-02 17:07:00,62.8,44.4,30.10,NW,318,1.0,6.0,51,0.00,,,0.00,WeatherCatV1.02B3,2013-11-02 22:07:00,
2013-11-02 17:12:00,62.6,44.7,30.10,NW,313,0.0,5.0,52,0.00,,,0.00,WeatherCatV1.02B3,2013-11-02 22:12:00,
2013-11-02 17:17:00,62.4,46.0,30.10,WNW,284,0.0,4.0,55,0.00,,,0.00,WeatherCatV1.02B3,2013-11-02 22:17:00,
2013-11-02 17:22:00,62.2,46.3,30.10,NW,317,0.0,4.0,56,0.00,,,0.00,WeatherCatV1.02B3,2013-11-02 22:22:00,
2013-11-02 17:27:00,62.1,46.2,30.10,NNW,344,0.0,2.0,56,0.00,,,0.00,WeatherCatV1.02B3,2013-11-02 22:27:00,
2013-11-02 17:32:00,61.8,45.5,30.10,NW,321,1.0,6.0,55,0.00,,,0.00,WeatherCatV1.02B3,2013-11-02 22:32:00,
2013-11-02 17:37:00,61.4,44.6,30.11,WNW,296,0.0,3.0,54,0.00,,,0.00,WeatherCatV1.02B3,2013-11-02 22:37:00,
2013-11-02 17:42:00,61.0,44.7,30.11,NNW,332,0.0,6.0,55,0.00,,,0.00,WeatherCatV1.02B3,2013-11-02 22:42:00,
2013-11-02 17:47:00,60.6,45.3,30.11,West,279,0.0,4.0,57,0.00,,,0.00,WeatherCatV1.02B3,2013-11-02 22:47:00,
2013-11-02 17:52:00,60.4,45.6,30.11,NW,309,3.0,5.0,58,0.00,,,0.00,WeatherCatV1.02B3,2013-11-02 22:52:00,
2013-11-02 17:57:00,60.2,45.4,30.12,WSW,255,0.0,7.0,58,0.00,,,0.00,WeatherCatV1.02B3,2013-11-02 22:57:00,
2013-11-02 18:02:00,60.0,45.2,30.12,NNW,333,1.0,4.0,58,0.00,,,0.00,WeatherCatV1.02B3,2013-11-02 23:02:00,
2013-11-02 18:07:00,59.8,45.4,30.12,WSW,238,0.0,5.0,59,0.00,,,0.00,WeatherCatV1.02B3,2013-11-02 23:07:00,
2013-11-02 18:12:00,59.6,45.3,30.13,WNW,282,0.0,4.0,59,0.00,,,0.00,WeatherCatV1.02B3,2013-11-02 23:12:00,
2013-11-02 18:17:00,59.5,45.2,30.13,North,9,0.0,3.0,59,0.00,,,0.00,WeatherCatV1.02B3,2013-11-02 23:17:00,
2013-11-02 18:22:00,59.3,45.0,30.13,NW,304,0.0,2.0,59,0.00,,,0.00,WeatherCatV1.02B3,2013-11-02 23:22:00,
2013-11-02 18:27:00,59.1,44.8,30.14,NNE,17,2.0,6.0,59,0.00,,,0.00,WeatherCatV1.02B3,2013-11-02 23:27:00,
2013-11-02 18:32:00,59.0,45.1,30.14,North,11,0.0,5.0,60,0.00,,,0.00,WeatherCatV1.02B3,2013-11-02 23:32:00,
2013-11-02 18:37:00,58.9,45.0,30.14,NW,311,0.0,1.0,60,0.00,,,0.00,WeatherCatV1.02B3,2013-11-02 23:37:00,
2013-11-02 18:42:00,58.7,45.3,30.14,NNW,333,0.0,3.0,61,0.00,,,0.00,WeatherCatV1.02B3,2013-11-02 23:42:00,
2013-11-02 18:47:00,58.6,45.2,30.15,NNW,334,0.0,0.0,61,0.00,,,0.00,WeatherCatV1.02B3,2013-11-02 23:47:00,
2013-11-02 18:52:00,58.4,45.0,30.15,NNW,333,0.0,3.0,61,0.00,,,0.00,WeatherCatV1.02B3,2013-11-02 23:52:00,
2013-11-02 18:57:00,58.4,45.4,30.15,NW,317,0.0,2.0,62,0.00,,,0.00,WeatherCatV1.02B3,2013-11-02 23:57:00,
2013-11-02 19:02:00,58.3,45.3,30.16,WNW,302,0.0,5.0,62,0.00,,,0.00,WeatherCatV1.02B3,2013-11-03 00:02:00,
2013-11-02 19:07:00,58.2,45.2,30.16,NNW,329,0.0,3.0,62,0.00,,,0.00,WeatherCatV1.02B3,2013-11-03 00:07:00,
2013-11-02 19:12:00,58.1,46.0,30.16,NNW,336,1.0,1.0,64,0.00,,,0.00,WeatherCatV1.02B3,2013-11-03 00:12:00,
2013-11-02 19:17:00,58.0,45.9,30.17,NW,314,0.0,0.0,64,0.00,,,0.00,WeatherCatV1.02B3,2013-11-03 00:17:00,
2013-11-02 19:22:00,58.0,45.9,30.17,NW,313,1.0,6.0,64,0.00,,,0.00,WeatherCatV1.02B3,2013-11-03 00:22:00,
2013-11-02 19:27:00,57.9,45.8,30.17,NNW,335,0.0,2.0,64,0.00,,,0.00,WeatherCatV1.02B3,2013-11-03 00:27:00,
2013-11-02 19:32:00,57.9,46.2,30.18,NNW,332,0.0,1.0,65,0.00,,,0.00,WeatherCatV1.02B3,2013-11-03 00:32:00,
2013-11-02 19:37:00,57.8,46.1,30.18,NW,318,0.0,1.0,65,0.00,,,0.00,WeatherCatV1.02B3,2013-11-03 00:37:00,
2013-11-02 19:42:00,57.8,46.1,30.18,NW,305,0.0,0.0,65,0.00,,,0.00,WeatherCatV1.02B3,2013-11-03 00:42:00,
2013-11-02 19:47:00,57.8,46.5,30.18,NW,325,0.0,0.0,66,0.00,,,0.00,WeatherCatV1.02B3,2013-11-03 00:47:00,
2013-11-02 19:52:00,57.7,46.4,30.19,NW,325,0.0,1.0,66,0.00,,,0.00,WeatherCatV1.02B3,2013-11-03 00:52:00,
2013-11-02 19:57:00,57.7,46.4,30.19,NW,305,1.0,6.0,66,0.00,,,0.00,WeatherCatV1.02B3,2013-11-03 00:57:00,
2013-11-02 20:02:00,57.7,46.4,30.19,NNW,333,1.0,5.0,66,0.00,,,0.00,WeatherCatV1.02B3,2013-11-03 01:02:00,
2013-11-02 20:07:00,57.6,46.3,30.19,North,355,3.0,3.0,66,0.00,,,0.00,WeatherCatV1.02B3,2013-11-03 01:07:00,
2013-11-02 20:12:00,57.5,46.2,30.19,NNW,336,1.0,5.0,66,0.00,,,0.00,WeatherCatV1.02B3,2013-11-03 01:12:00,
2013-11-02 20:17:00,57.3,46.0,30.19,NNW,344,0.0,4.0,66,0.00,,,0.00,WeatherCatV1.02B3,2013-11-03 01:17:00,
2013-11-02 20:22:00,57.0,45.8,30.20,NW,326,0.0,2.0,66,0.00,,,0.00,WeatherCatV1.02B3,2013-11-03 01:22:00,
2013-11-02 20:27:00,56.8,46.0,30.20,NNW,335,0.0,4.0,67,0.00,,,0.00,WeatherCatV1.02B3,2013-11-03 01:27:00,
2013-11-02 20:32:00,56.5,45.7,30.20,NNW,339,0.0,0.0,67,0.00,,,0.00,WeatherCatV1.02B3,2013-11-03 01:32:00,
2013-11-02 20:37:00,56.3,45.5,30.20,NNE,33,0.0,6.0,67,0.00,,,0.00,WeatherCatV1.02B3,2013-11-03 01:37:00,
2013-11-02 20:42:00,56.1,45.3,30.20,NNE,15,0.0,5.0,67,0.00,,,0.00,WeatherCatV1.02B3,2013-11-03 01:42:00,
2013-11-02 20:47:00,55.9,45.1,30.20,NNW,329,1.0,9.0,67,0.00,,,0.00,WeatherCatV1.02B3,2013-11-03 01:47:00,
2013-11-02 20:52:00,55.8,45.0,30.21,NNW,329,1.0,3.0,67,0.00,,,0.00,WeatherCatV1.02B3,2013-11-03 01:52:00,
2013-11-02 20:57:00,55.7,45.3,30.21,NNW,334,0.0,0.0,68,0.00,,,0.00,WeatherCatV1.02B3,2013-11-03 01:57:00,
2013-11-02 21:02:00,55.6,45.2,30.21,NNE,31,0.0,6.0,68,0.00,,,0.00,WeatherCatV1.02B3,2013-11-03 02:02:00,
2013-11-02 21:07:00,55.5,45.1,30.22,NW,320,0.0,4.0,68,0.00,,,0.00,WeatherCatV1.02B3,2013-11-03 02:07:00,
2013-11-02 21:12:00,55.4,45.0,30.21,NNW,328,3.0,3.0,68,0.00,,,0.00,WeatherCatV1.02B3,2013-11-03 02:12:00,
2013-11-02 21:17:00,55.3,44.9,30.22,NNW,336,1.0,4.0,68,0.00,,,0.00,WeatherCatV1.02B3,2013-11-03 02:17:00,
2013-11-02 21:22:00,55.2,45.2,30.22,NNW,340,0.0,1.0,69,0.00,,,0.00,WeatherCatV1.02B3,2013-11-03 02:22:00,
2013-11-02 21:27:00,55.1,45.1,30.22,North,355,0.0,5.0,69,0.00,,,0.00,WeatherCatV1.02B3,2013-11-03 02:27:00,
2013-11-02 21:32:00,55.0,45.0,30.22,North,0,4.0,5.0,69,0.00,,,0.00,WeatherCatV1.02B3,2013-11-03 02:32:00,
2013-11-02 21:37:00,54.9,44.9,30.22,NNW,345,0.0,3.0,69,0.00,,,0.00,WeatherCatV1.02B3,2013-11-03 02:37:00,
2013-11-02 21:42:00,54.8,44.8,30.22,North,10,0.0,0.0,69,0.00,,,0.00,WeatherCatV1.02B3,2013-11-03 02:42:00,
2013-11-02 21:47:00,54.6,44.6,30.22,NNE,13,1.0,5.0,69,0.00,,,0.00,WeatherCatV1.02B3,2013-11-03 02:47:00,
2013-11-02 21:52:00,54.5,44.5,30.23,NW,311,0.0,6.0,69,0.00,,,0.00,WeatherCatV1.02B3,2013-11-03 02:52:00,
2013-11-02 21:57:00,54.5,44.2,30.23,NNW,336,0.0,4.0,68,0.00,,,0.00,WeatherCatV1.02B3,2013-11-03 02:57:00,
2013-11-02 22:02:00,54.5,44.5,30.23,North,0,0.0,0.0,69,0.00,,,0.00,WeatherCatV1.02B3,2013-11-03 03:02:00,
2013-11-02 22:07:00,54.4,44.1,30.23,WNW,298,1.0,4.0,68,0.00,,,0.00,WeatherCatV1.02B3,2013-11-03 03:07:00,
2013-11-02 22:12:00,54.4,43.7,30.23,NNW,344,1.0,8.0,67,0.00,,,0.00,WeatherCatV1.02B3,2013-11-03 03:12:00,
2013-11-02 22:17:00,54.4,43.3,30.23,North,0,3.0,4.0,66,0.00,,,0.00,WeatherCatV1.02B3,2013-11-03 03:17:00,
2013-11-02 22:22:00,54.3,43.6,30.23,North,349,1.0,1.0,67,0.00,,,0.00,WeatherCatV1.02B3,2013-11-03 03:22:00,
2013-11-02 22:27:00,54.2,43.9,30.23,NNW,342,0.0,1.0,68,0.00,,,0.00,WeatherCatV1.02B3,2013-11-03 03:27:00,
2013-11-02 22:32:00,54.1,43.4,30.23,North,0,0.0,7.0,67,0.00,,,0.00,WeatherCatV1.02B3,2013-11-03 03:32:00,
2013-11-02 22:37:00,54.0,43.3,30.23,North,355,0.0,0.0,67,0.00,,,0.00,WeatherCatV1.02B3,2013-11-03 03:37:00,
2013-11-02 22:42:00,53.9,43.2,30.23,NNW,344,0.0,3.0,67,0.00,,,0.00,WeatherCatV1.02B3,2013-11-03 03:42:00,
2013-11-02 22:47:00,53.9,43.2,30.24,North,355,0.0,1.0,67,0.00,,,0.00,WeatherCatV1.02B3,2013-11-03 03:47:00,
2013-11-02 22:52:00,53.8,43.9,30.24,NNE,17,0.0,2.0,69,0.00,,,0.00,WeatherCatV1.02B3,2013-11-03 03:52:00,
2013-11-02 22:57:00,53.7,43.4,30.24,North,355,1.0,4.0,68,0.00,,,0.00,WeatherCatV1.02B3,2013-11-03 03:57:00,
2013-11-02 23:01:00,53.6,43.3,30.24,North,350,0.0,2.0,68,0.00,,,0.00,WeatherCatV1.02B3,2013-11-03 04:01:00,
2013-11-02 23:06:00,53.5,43.6,30.24,NNW,345,0.0,1.0,69,0.00,,,0.00,WeatherCatV1.02B3,2013-11-03 04:06:00,
2013-11-02 23:11:00,53.4,43.9,30.23,NNE,27,3.0,5.0,70,0.00,,,0.00,WeatherCatV1.02B3,2013-11-03 04:11:00,
2013-11-02 23:16:00,53.3,43.8,30.23,ENE,63,0.0,6.0,70,0.00,,,0.00,WeatherCatV1.02B3,2013-11-03 04:16:00,
2013-11-02 23:21:00,53.2,43.7,30.23,NW,324,0.0,2.0,70,0.00,,,0.00,WeatherCatV1.02B3,2013-11-03 04:21:00,
2013-11-02 23:26:00,53.0,43.5,30.23,NNE,21,0.0,6.0,70,0.00,,,0.00,WeatherCatV1.02B3,2013-11-03 04:26:00,
2013-11-02 23:31:00,53.0,43.5,30.22,NE,42,0.0,3.0,70,0.00,,,0.00,WeatherCatV1.02B3,2013-11-03 04:31:00,
2013-11-02 23:36:00,53.0,43.5,30.22,North,5,0.0,2.0,70,0.00,,,0.00,WeatherCatV1.02B3,2013-11-03 04:36:00,
2013-11-02 23:41:00,53.0,43.5,30.22,NNE,19,2.0,2.0,70,0.00,,,0.00,WeatherCatV1.02B3,2013-11-03 04:41:00,
2013-11-02 23:46:00,52.8,43.7,30.22,North,355,0.0,1.0,71,0.00,,,0.00,WeatherCatV1.02B3,2013-11-03 04:46:00,
2013-11-02 23:51:00,52.8,43.7,30.22,NNE,15,0.0,2.0,71,0.00,,,0.00,WeatherCatV1.02B3,2013-11-03 04:51:00,
2013-11-02 23:56:00,52.8,43.7,30.22,North,0,0.0,6.0,71,0.00,,,0.00,WeatherCatV1.02B3,2013-11-03 04:56:00,